sensor_id;sensor_type;location;lat;lon;timestamp;temperature;humidity
12111;DHT22;6119;52.372;8.990;2022-08-24T00:02:31;23.20;92.40
12111;DHT22;6119;52.372;8.990;2022-08-24T00:05:18;23.20;92.40
12111;DHT22;6119;52.372;8.990;2022-08-24T00:08:07;23.10;92.50
12111;DHT22;6119;52.372;8.990;2022-08-24T00:10:54;23.00;92.80
12111;DHT22;6119;52.372;8.990;2022-08-24T00:13:41;23.00;93.00
12111;DHT22;6119;52.372;8.990;2022-08-24T00:16:28;22.90;92.90
12111;DHT22;6119;52.372;8.990;2022-08-24T00:19:15;22.90;93.10
12111;DHT22;6119;52.372;8.990;2022-08-24T00:22:03;22.90;93.10
12111;DHT22;6119;52.372;8.990;2022-08-24T00:24:51;22.80;93.00
12111;DHT22;6119;52.372;8.990;2022-08-24T00:27:40;22.80;93.00
12111;DHT22;6119;52.372;8.990;2022-08-24T00:30:27;22.80;93.10
12111;DHT22;6119;52.372;8.990;2022-08-24T00:33:14;22.70;93.50
12111;DHT22;6119;52.372;8.990;2022-08-24T00:36:00;22.60;93.80
12111;DHT22;6119;52.372;8.990;2022-08-24T00:38:49;22.60;94.00
12111;DHT22;6119;52.372;8.990;2022-08-24T00:41:40;22.50;94.40
12111;DHT22;6119;52.372;8.990;2022-08-24T00:44:28;22.50;94.10
12111;DHT22;6119;52.372;8.990;2022-08-24T00:47:18;22.40;94.30
12111;DHT22;6119;52.372;8.990;2022-08-24T00:50:10;22.40;94.50
12111;DHT22;6119;52.372;8.990;2022-08-24T00:53:00;22.30;94.70
12111;DHT22;6119;52.372;8.990;2022-08-24T00:55:49;22.30;94.80
12111;DHT22;6119;52.372;8.990;2022-08-24T00:58:42;22.20;95.40
12111;DHT22;6119;52.372;8.990;2022-08-24T01:01:37;22.30;95.20
12111;DHT22;6119;52.372;8.990;2022-08-24T01:04:27;22.20;95.30
12111;DHT22;6119;52.372;8.990;2022-08-24T01:07:21;22.20;95.40
12111;DHT22;6119;52.372;8.990;2022-08-24T01:10:10;22.20;95.70
12111;DHT22;6119;52.372;8.990;2022-08-24T01:13:00;22.20;95.80
12111;DHT22;6119;52.372;8.990;2022-08-24T01:15:51;22.10;96.00
12111;DHT22;6119;52.372;8.990;2022-08-24T01:18:39;22.10;96.50
12111;DHT22;6119;52.372;8.990;2022-08-24T01:21:39;22.00;96.70
12111;DHT22;6119;52.372;8.990;2022-08-24T01:24:28;22.00;96.40
12111;DHT22;6119;52.372;8.990;2022-08-24T01:27:15;22.00;96.70
12111;DHT22;6119;52.372;8.990;2022-08-24T01:30:12;22.00;96.90
12111;DHT22;6119;52.372;8.990;2022-08-24T01:33:03;22.00;96.80
12111;DHT22;6119;52.372;8.990;2022-08-24T01:35:53;21.90;96.90
12111;DHT22;6119;52.372;8.990;2022-08-24T01:38:42;21.90;97.20
12111;DHT22;6119;52.372;8.990;2022-08-24T01:41:31;21.90;97.50
12111;DHT22;6119;52.372;8.990;2022-08-24T01:44:18;21.90;97.50
12111;DHT22;6119;52.372;8.990;2022-08-24T01:47:06;21.90;97.70
12111;DHT22;6119;52.372;8.990;2022-08-24T01:49:53;21.90;97.50
12111;DHT22;6119;52.372;8.990;2022-08-24T01:52:41;21.80;97.90
12111;DHT22;6119;52.372;8.990;2022-08-24T01:55:48;21.70;97.90
12111;DHT22;6119;52.372;8.990;2022-08-24T01:58:42;21.80;98.20
12111;DHT22;6119;52.372;8.990;2022-08-24T02:01:31;21.70;98.50
12111;DHT22;6119;52.372;8.990;2022-08-24T02:04:20;21.70;98.80
12111;DHT22;6119;52.372;8.990;2022-08-24T02:07:06;21.60;99.00
12111;DHT22;6119;52.372;8.990;2022-08-24T02:09:53;21.60;99.40
12111;DHT22;6119;52.372;8.990;2022-08-24T02:12:42;21.50;99.80
12111;DHT22;6119;52.372;8.990;2022-08-24T02:15:33;21.50;99.90
12111;DHT22;6119;52.372;8.990;2022-08-24T02:18:24;21.50;99.90
12111;DHT22;6119;52.372;8.990;2022-08-24T02:21:12;21.40;99.90
12111;DHT22;6119;52.372;8.990;2022-08-24T02:23:59;21.40;99.90
12111;DHT22;6119;52.372;8.990;2022-08-24T02:26:45;21.40;99.90
12111;DHT22;6119;52.372;8.990;2022-08-24T02:29:33;21.10;99.90
12111;DHT22;6119;52.372;8.990;2022-08-24T02:32:21;21.20;99.90
12111;DHT22;6119;52.372;8.990;2022-08-24T02:35:09;21.30;99.90
12111;DHT22;6119;52.372;8.990;2022-08-24T02:37:56;21.40;99.90
12111;DHT22;6119;52.372;8.990;2022-08-24T02:40:43;21.30;99.90
12111;DHT22;6119;52.372;8.990;2022-08-24T02:43:29;21.40;99.90
12111;DHT22;6119;52.372;8.990;2022-08-24T02:46:20;21.40;99.90
12111;DHT22;6119;52.372;8.990;2022-08-24T02:49:08;21.40;99.90
12111;DHT22;6119;52.372;8.990;2022-08-24T02:51:56;21.40;99.90
12111;DHT22;6119;52.372;8.990;2022-08-24T02:54:42;21.40;99.90
12111;DHT22;6119;52.372;8.990;2022-08-24T02:57:29;21.40;99.90
12111;DHT22;6119;52.372;8.990;2022-08-24T03:00:18;21.40;99.90
12111;DHT22;6119;52.372;8.990;2022-08-24T03:03:06;21.40;99.90
12111;DHT22;6119;52.372;8.990;2022-08-24T03:05:54;21.30;99.90
12111;DHT22;6119;52.372;8.990;2022-08-24T03:08:41;21.30;99.90
12111;DHT22;6119;52.372;8.990;2022-08-24T03:11:35;21.30;99.90
12111;DHT22;6119;52.372;8.990;2022-08-24T03:14:22;21.30;99.90
12111;DHT22;6119;52.372;8.990;2022-08-24T03:17:08;21.20;99.90
12111;DHT22;6119;52.372;8.990;2022-08-24T03:19:55;21.20;99.90
12111;DHT22;6119;52.372;8.990;2022-08-24T03:22:43;21.20;99.90
12111;DHT22;6119;52.372;8.990;2022-08-24T03:25:30;21.10;99.90
12111;DHT22;6119;52.372;8.990;2022-08-24T03:28:17;21.10;99.90
12111;DHT22;6119;52.372;8.990;2022-08-24T03:31:08;21.10;99.90
12111;DHT22;6119;52.372;8.990;2022-08-24T03:33:55;21.10;99.90
12111;DHT22;6119;52.372;8.990;2022-08-24T03:36:42;21.10;99.90
12111;DHT22;6119;52.372;8.990;2022-08-24T03:39:32;21.10;99.90
12111;DHT22;6119;52.372;8.990;2022-08-24T03:42:19;21.10;99.90
12111;DHT22;6119;52.372;8.990;2022-08-24T03:45:07;21.00;99.90
12111;DHT22;6119;52.372;8.990;2022-08-24T03:47:57;21.00;99.90
12111;DHT22;6119;52.372;8.990;2022-08-24T03:50:43;21.00;99.90
12111;DHT22;6119;52.372;8.990;2022-08-24T03:53:30;20.90;99.90
12111;DHT22;6119;52.372;8.990;2022-08-24T03:56:22;21.00;99.90
12111;DHT22;6119;52.372;8.990;2022-08-24T03:59:09;20.90;99.90
12111;DHT22;6119;52.372;8.990;2022-08-24T04:01:56;20.90;99.90
12111;DHT22;6119;52.372;8.990;2022-08-24T04:04:43;20.90;99.90
12111;DHT22;6119;52.372;8.990;2022-08-24T04:07:30;20.80;99.90
12111;DHT22;6119;52.372;8.990;2022-08-24T04:10:17;20.70;99.90
12111;DHT22;6119;52.372;8.990;2022-08-24T04:13:04;20.70;99.90
12111;DHT22;6119;52.372;8.990;2022-08-24T04:15:52;20.60;99.90
12111;DHT22;6119;52.372;8.990;2022-08-24T04:18:39;20.60;99.90
12111;DHT22;6119;52.372;8.990;2022-08-24T04:21:27;20.60;99.90
12111;DHT22;6119;52.372;8.990;2022-08-24T04:24:13;20.60;99.90
12111;DHT22;6119;52.372;8.990;2022-08-24T04:27:00;20.60;99.90
12111;DHT22;6119;52.372;8.990;2022-08-24T04:29:47;20.60;99.90
12111;DHT22;6119;52.372;8.990;2022-08-24T04:32:35;20.50;99.90
12111;DHT22;6119;52.372;8.990;2022-08-24T04:35:22;20.50;99.90
12111;DHT22;6119;52.372;8.990;2022-08-24T04:38:09;20.50;99.90
12111;DHT22;6119;52.372;8.990;2022-08-24T04:40:55;20.50;99.90
12111;DHT22;6119;52.372;8.990;2022-08-24T04:43:45;20.50;99.90
12111;DHT22;6119;52.372;8.990;2022-08-24T04:46:33;20.50;99.90
12111;DHT22;6119;52.372;8.990;2022-08-24T04:49:20;20.50;99.90
12111;DHT22;6119;52.372;8.990;2022-08-24T04:52:06;20.50;99.90
12111;DHT22;6119;52.372;8.990;2022-08-24T04:54:54;20.50;99.90
12111;DHT22;6119;52.372;8.990;2022-08-24T04:57:40;20.50;99.90
12111;DHT22;6119;52.372;8.990;2022-08-24T05:00:27;20.50;99.90
12111;DHT22;6119;52.372;8.990;2022-08-24T05:03:14;20.50;99.90
12111;DHT22;6119;52.372;8.990;2022-08-24T05:06:04;20.50;99.90
12111;DHT22;6119;52.372;8.990;2022-08-24T05:08:51;20.60;99.90
12111;DHT22;6119;52.372;8.990;2022-08-24T05:11:38;20.60;99.90
12111;DHT22;6119;52.372;8.990;2022-08-24T05:14:33;20.70;99.90
12111;DHT22;6119;52.372;8.990;2022-08-24T05:17:20;20.70;99.90
12111;DHT22;6119;52.372;8.990;2022-08-24T05:20:09;20.70;99.90
12111;DHT22;6119;52.372;8.990;2022-08-24T05:22:56;20.60;99.90
12111;DHT22;6119;52.372;8.990;2022-08-24T05:25:48;20.60;99.90
12111;DHT22;6119;52.372;8.990;2022-08-24T05:28:35;20.70;99.90
12111;DHT22;6119;52.372;8.990;2022-08-24T05:31:23;20.70;99.90
12111;DHT22;6119;52.372;8.990;2022-08-24T05:34:10;20.80;99.90
12111;DHT22;6119;52.372;8.990;2022-08-24T05:36:59;20.90;99.90
12111;DHT22;6119;52.372;8.990;2022-08-24T05:39:46;20.90;99.90
12111;DHT22;6119;52.372;8.990;2022-08-24T05:42:33;20.90;99.90
12111;DHT22;6119;52.372;8.990;2022-08-24T05:45:19;20.90;99.90
12111;DHT22;6119;52.372;8.990;2022-08-24T05:48:06;21.10;99.90
12111;DHT22;6119;52.372;8.990;2022-08-24T05:50:52;21.00;99.90
12111;DHT22;6119;52.372;8.990;2022-08-24T05:53:40;21.10;99.90
12111;DHT22;6119;52.372;8.990;2022-08-24T05:56:27;21.10;99.90
12111;DHT22;6119;52.372;8.990;2022-08-24T05:59:16;21.20;99.90
12111;DHT22;6119;52.372;8.990;2022-08-24T06:02:04;21.20;99.90
12111;DHT22;6119;52.372;8.990;2022-08-24T06:04:50;21.30;99.90
12111;DHT22;6119;52.372;8.990;2022-08-24T06:07:37;21.30;99.90
12111;DHT22;6119;52.372;8.990;2022-08-24T06:10:24;21.30;99.90
12111;DHT22;6119;52.372;8.990;2022-08-24T06:13:21;21.40;99.90
12111;DHT22;6119;52.372;8.990;2022-08-24T06:16:10;21.40;99.90
12111;DHT22;6119;52.372;8.990;2022-08-24T06:19:18;21.50;99.90
12111;DHT22;6119;52.372;8.990;2022-08-24T06:22:06;21.50;99.90
12111;DHT22;6119;52.372;8.990;2022-08-24T06:24:52;21.40;99.90
12111;DHT22;6119;52.372;8.990;2022-08-24T06:27:58;21.50;99.90
12111;DHT22;6119;52.372;8.990;2022-08-24T06:30:44;21.60;99.90
12111;DHT22;6119;52.372;8.990;2022-08-24T06:33:30;21.70;99.90
12111;DHT22;6119;52.372;8.990;2022-08-24T06:36:17;21.70;99.90
12111;DHT22;6119;52.372;8.990;2022-08-24T06:39:07;21.80;99.90
12111;DHT22;6119;52.372;8.990;2022-08-24T06:41:54;21.80;99.90
12111;DHT22;6119;52.372;8.990;2022-08-24T06:44:42;21.90;99.90
12111;DHT22;6119;52.372;8.990;2022-08-24T06:47:28;22.00;99.90
12111;DHT22;6119;52.372;8.990;2022-08-24T06:50:15;22.10;99.90
12111;DHT22;6119;52.372;8.990;2022-08-24T06:53:05;22.20;99.90
12111;DHT22;6119;52.372;8.990;2022-08-24T06:55:54;22.30;99.90
12111;DHT22;6119;52.372;8.990;2022-08-24T06:58:41;22.40;99.90
12111;DHT22;6119;52.372;8.990;2022-08-24T07:01:29;22.50;99.90
12111;DHT22;6119;52.372;8.990;2022-08-24T07:04:16;22.60;99.90
12111;DHT22;6119;52.372;8.990;2022-08-24T07:07:03;22.60;99.90
12111;DHT22;6119;52.372;8.990;2022-08-24T07:09:49;22.60;99.90
12111;DHT22;6119;52.372;8.990;2022-08-24T07:12:36;22.70;99.90
12111;DHT22;6119;52.372;8.990;2022-08-24T07:15:22;22.70;99.90
12111;DHT22;6119;52.372;8.990;2022-08-24T07:18:13;22.80;99.90
12111;DHT22;6119;52.372;8.990;2022-08-24T07:21:00;22.90;99.90
12111;DHT22;6119;52.372;8.990;2022-08-24T07:23:49;23.00;99.90
12111;DHT22;6119;52.372;8.990;2022-08-24T07:26:37;23.20;99.90
12111;DHT22;6119;52.372;8.990;2022-08-24T07:29:24;23.20;99.90
12111;DHT22;6119;52.372;8.990;2022-08-24T07:32:30;23.30;99.90
12111;DHT22;6119;52.372;8.990;2022-08-24T07:35:19;23.50;99.90
12111;DHT22;6119;52.372;8.990;2022-08-24T07:38:06;23.50;99.90
12111;DHT22;6119;52.372;8.990;2022-08-24T07:40:53;23.70;99.90
12111;DHT22;6119;52.372;8.990;2022-08-24T07:44:00;23.80;99.90
12111;DHT22;6119;52.372;8.990;2022-08-24T07:46:46;23.90;99.90
12111;DHT22;6119;52.372;8.990;2022-08-24T07:49:33;24.00;99.90
12111;DHT22;6119;52.372;8.990;2022-08-24T07:52:25;24.00;99.90
12111;DHT22;6119;52.372;8.990;2022-08-24T07:55:12;24.20;99.90
12111;DHT22;6119;52.372;8.990;2022-08-24T07:58:00;24.30;99.90
12111;DHT22;6119;52.372;8.990;2022-08-24T08:00:47;24.40;99.90
12111;DHT22;6119;52.372;8.990;2022-08-24T08:03:34;24.50;99.90
12111;DHT22;6119;52.372;8.990;2022-08-24T08:06:21;24.60;99.90
12111;DHT22;6119;52.372;8.990;2022-08-24T08:09:09;24.70;99.90
12111;DHT22;6119;52.372;8.990;2022-08-24T08:11:55;24.90;99.90
12111;DHT22;6119;52.372;8.990;2022-08-24T08:14:42;25.00;99.90
12111;DHT22;6119;52.372;8.990;2022-08-24T08:17:28;25.00;99.90
12111;DHT22;6119;52.372;8.990;2022-08-24T08:20:15;25.20;99.90
12111;DHT22;6119;52.372;8.990;2022-08-24T08:23:04;25.30;99.90
12111;DHT22;6119;52.372;8.990;2022-08-24T08:26:13;25.30;99.90
12111;DHT22;6119;52.372;8.990;2022-08-24T08:29:00;25.50;99.90
12111;DHT22;6119;52.372;8.990;2022-08-24T08:31:47;25.50;99.90
12111;DHT22;6119;52.372;8.990;2022-08-24T08:34:33;25.60;99.90
12111;DHT22;6119;52.372;8.990;2022-08-24T08:37:20;25.70;99.90
12111;DHT22;6119;52.372;8.990;2022-08-24T08:40:22;25.80;99.40
12111;DHT22;6119;52.372;8.990;2022-08-24T08:43:17;25.90;99.70
12111;DHT22;6119;52.372;8.990;2022-08-24T08:46:27;26.10;99.50
12111;DHT22;6119;52.372;8.990;2022-08-24T08:49:45;26.20;98.80
12111;DHT22;6119;52.372;8.990;2022-08-24T08:52:59;26.20;98.40
12111;DHT22;6119;52.372;8.990;2022-08-24T08:55:59;26.30;98.40
12111;DHT22;6119;52.372;8.990;2022-08-24T08:58:54;26.50;97.60
12111;DHT22;6119;52.372;8.990;2022-08-24T09:01:54;26.50;97.50
12111;DHT22;6119;52.372;8.990;2022-08-24T09:05:01;26.60;97.70
12111;DHT22;6119;52.372;8.990;2022-08-24T09:08:00;26.80;96.80
12111;DHT22;6119;52.372;8.990;2022-08-24T09:10:56;26.80;96.80
12111;DHT22;6119;52.372;8.990;2022-08-24T09:14:31;27.00;97.20
12111;DHT22;6119;52.372;8.990;2022-08-24T09:17:32;27.20;96.60
12111;DHT22;6119;52.372;8.990;2022-08-24T09:20:39;27.40;96.60
12111;DHT22;6119;52.372;8.990;2022-08-24T09:23:37;27.50;95.80
12111;DHT22;6119;52.372;8.990;2022-08-24T09:26:28;27.60;95.60
12111;DHT22;6119;52.372;8.990;2022-08-24T09:29:22;27.70;95.10
12111;DHT22;6119;52.372;8.990;2022-08-24T09:32:33;27.70;94.70
12111;DHT22;6119;52.372;8.990;2022-08-24T09:35:29;27.80;94.60
12111;DHT22;6119;52.372;8.990;2022-08-24T09:38:23;27.90;94.90
12111;DHT22;6119;52.372;8.990;2022-08-24T09:41:28;28.10;93.90
12111;DHT22;6119;52.372;8.990;2022-08-24T09:44:59;28.20;93.80
12111;DHT22;6119;52.372;8.990;2022-08-24T09:51:25;28.70;93.90
12111;DHT22;6119;52.372;8.990;2022-08-24T09:57:52;28.70;91.80
12111;DHT22;6119;52.372;8.990;2022-08-24T10:00:47;28.80;92.10
12111;DHT22;6119;52.372;8.990;2022-08-24T10:03:52;29.00;92.60
12111;DHT22;6119;52.372;8.990;2022-08-24T10:06:52;29.10;91.80
12111;DHT22;6119;52.372;8.990;2022-08-24T10:13:11;29.50;91.60
12111;DHT22;6119;52.372;8.990;2022-08-24T10:16:04;29.60;91.30
12111;DHT22;6119;52.372;8.990;2022-08-24T10:19:03;29.30;89.60
12111;DHT22;6119;52.372;8.990;2022-08-24T10:21:56;29.50;90.20
12111;DHT22;6119;52.372;8.990;2022-08-24T10:25:02;29.70;90.10
12111;DHT22;6119;52.372;8.990;2022-08-24T10:27:59;29.80;88.20
12111;DHT22;6119;52.372;8.990;2022-08-24T10:31:00;30.00;86.20
12111;DHT22;6119;52.372;8.990;2022-08-24T10:33:56;30.00;87.30
12111;DHT22;6119;52.372;8.990;2022-08-24T10:37:14;30.10;87.10
12111;DHT22;6119;52.372;8.990;2022-08-24T10:40:20;30.20;85.00
12111;DHT22;6119;52.372;8.990;2022-08-24T10:43:33;30.40;85.40
12111;DHT22;6119;52.372;8.990;2022-08-24T10:46:41;30.50;86.90
12111;DHT22;6119;52.372;8.990;2022-08-24T10:49:56;30.70;87.00
12111;DHT22;6119;52.372;8.990;2022-08-24T10:56:19;31.00;84.60
12111;DHT22;6119;52.372;8.990;2022-08-24T10:59:17;31.00;81.50
12111;DHT22;6119;52.372;8.990;2022-08-24T11:02:10;31.00;81.80
12111;DHT22;6119;52.372;8.990;2022-08-24T11:04:58;31.30;83.00
12111;DHT22;6119;52.372;8.990;2022-08-24T11:07:56;31.40;82.30
12111;DHT22;6119;52.372;8.990;2022-08-24T11:10:43;31.40;79.30
12111;DHT22;6119;52.372;8.990;2022-08-24T11:13:30;31.30;79.30
12111;DHT22;6119;52.372;8.990;2022-08-24T11:16:24;31.50;81.20
12111;DHT22;6119;52.372;8.990;2022-08-24T11:19:16;31.30;79.40
12111;DHT22;6119;52.372;8.990;2022-08-24T11:22:27;31.70;81.00
12111;DHT22;6119;52.372;8.990;2022-08-24T11:25:19;31.80;78.80
12111;DHT22;6119;52.372;8.990;2022-08-24T11:28:18;31.80;78.80
12111;DHT22;6119;52.372;8.990;2022-08-24T11:31:08;32.00;78.90
12111;DHT22;6119;52.372;8.990;2022-08-24T11:33:58;32.20;77.90
12111;DHT22;6119;52.372;8.990;2022-08-24T11:36:48;32.30;78.00
12111;DHT22;6119;52.372;8.990;2022-08-24T11:39:36;32.50;77.30
12111;DHT22;6119;52.372;8.990;2022-08-24T11:42:35;32.40;76.10
12111;DHT22;6119;52.372;8.990;2022-08-24T11:45:31;32.50;75.40
12111;DHT22;6119;52.372;8.990;2022-08-24T11:48:27;32.70;73.70
12111;DHT22;6119;52.372;8.990;2022-08-24T11:51:26;32.70;74.50
12111;DHT22;6119;52.372;8.990;2022-08-24T11:54:22;32.80;75.60
12111;DHT22;6119;52.372;8.990;2022-08-24T11:57:18;32.70;72.60
12111;DHT22;6119;52.372;8.990;2022-08-24T12:00:09;32.70;72.70
12111;DHT22;6119;52.372;8.990;2022-08-24T12:03:02;32.80;73.70
12111;DHT22;6119;52.372;8.990;2022-08-24T12:05:57;32.80;71.60
12111;DHT22;6119;52.372;8.990;2022-08-24T12:08:49;32.90;73.10
12111;DHT22;6119;52.372;8.990;2022-08-24T12:11:43;33.20;76.00
12111;DHT22;6119;52.372;8.990;2022-08-24T12:14:38;33.30;72.80
12111;DHT22;6119;52.372;8.990;2022-08-24T12:17:29;33.10;71.30
12111;DHT22;6119;52.372;8.990;2022-08-24T12:20:25;33.30;72.60
12111;DHT22;6119;52.372;8.990;2022-08-24T12:23:23;33.30;70.40
12111;DHT22;6119;52.372;8.990;2022-08-24T12:26:13;33.50;72.00
12111;DHT22;6119;52.372;8.990;2022-08-24T12:29:07;33.50;68.90
12111;DHT22;6119;52.372;8.990;2022-08-24T12:31:57;33.30;68.10
12111;DHT22;6119;52.372;8.990;2022-08-24T12:34:51;33.30;67.40
12111;DHT22;6119;52.372;8.990;2022-08-24T12:37:46;33.10;67.80
12111;DHT22;6119;52.372;8.990;2022-08-24T12:40:38;33.10;67.90
12111;DHT22;6119;52.372;8.990;2022-08-24T12:43:30;33.10;67.70
12111;DHT22;6119;52.372;8.990;2022-08-24T12:46:22;33.10;66.80
12111;DHT22;6119;52.372;8.990;2022-08-24T12:49:15;33.40;68.70
12111;DHT22;6119;52.372;8.990;2022-08-24T12:52:14;33.50;68.30
12111;DHT22;6119;52.372;8.990;2022-08-24T12:55:16;33.30;68.40
12111;DHT22;6119;52.372;8.990;2022-08-24T12:58:10;33.40;67.80
12111;DHT22;6119;52.372;8.990;2022-08-24T13:01:23;33.50;68.10
12111;DHT22;6119;52.372;8.990;2022-08-24T13:04:17;33.80;68.30
12111;DHT22;6119;52.372;8.990;2022-08-24T13:07:27;33.80;67.70
12111;DHT22;6119;52.372;8.990;2022-08-24T13:10:36;34.00;67.50
12111;DHT22;6119;52.372;8.990;2022-08-24T13:13:46;34.20;67.00
12111;DHT22;6119;52.372;8.990;2022-08-24T13:16:48;34.50;67.20
12111;DHT22;6119;52.372;8.990;2022-08-24T13:19:38;34.70;65.90
12111;DHT22;6119;52.372;8.990;2022-08-24T13:22:45;34.80;67.50
12111;DHT22;6119;52.372;8.990;2022-08-24T13:25:50;34.70;67.20
12111;DHT22;6119;52.372;8.990;2022-08-24T13:28:43;34.50;65.80
12111;DHT22;6119;52.372;8.990;2022-08-24T13:31:32;33.90;66.30
12111;DHT22;6119;52.372;8.990;2022-08-24T13:34:39;33.60;66.80
12111;DHT22;6119;52.372;8.990;2022-08-24T13:37:27;33.50;68.10
12111;DHT22;6119;52.372;8.990;2022-08-24T13:40:17;33.60;68.90
12111;DHT22;6119;52.372;8.990;2022-08-24T13:43:16;33.90;68.80
12111;DHT22;6119;52.372;8.990;2022-08-24T13:46:15;34.10;68.10
12111;DHT22;6119;52.372;8.990;2022-08-24T13:49:17;34.50;68.20
12111;DHT22;6119;52.372;8.990;2022-08-24T13:52:15;34.40;65.40
12111;DHT22;6119;52.372;8.990;2022-08-24T13:55:34;34.70;67.40
12111;DHT22;6119;52.372;8.990;2022-08-24T13:58:35;34.70;66.30
12111;DHT22;6119;52.372;8.990;2022-08-24T14:01:35;34.30;67.00
12111;DHT22;6119;52.372;8.990;2022-08-24T14:04:39;33.90;67.40
12111;DHT22;6119;52.372;8.990;2022-08-24T14:07:33;33.80;67.70
12111;DHT22;6119;52.372;8.990;2022-08-24T14:10:42;34.00;65.60
12111;DHT22;6119;52.372;8.990;2022-08-24T14:13:51;34.10;65.90
12111;DHT22;6119;52.372;8.990;2022-08-24T14:16:50;34.60;67.00
12111;DHT22;6119;52.372;8.990;2022-08-24T14:20:09;34.10;66.80
12111;DHT22;6119;52.372;8.990;2022-08-24T14:23:03;33.90;65.00
12111;DHT22;6119;52.372;8.990;2022-08-24T14:29:28;33.70;68.10
12111;DHT22;6119;52.372;8.990;2022-08-24T14:32:34;33.90;66.70
12111;DHT22;6119;52.372;8.990;2022-08-24T14:35:33;33.80;66.20
12111;DHT22;6119;52.372;8.990;2022-08-24T14:38:30;34.00;66.80
12111;DHT22;6119;52.372;8.990;2022-08-24T14:41:38;34.30;67.00
12111;DHT22;6119;52.372;8.990;2022-08-24T14:44:49;34.50;66.00
12111;DHT22;6119;52.372;8.990;2022-08-24T14:47:45;34.20;65.50
12111;DHT22;6119;52.372;8.990;2022-08-24T14:50:41;34.30;65.70
12111;DHT22;6119;52.372;8.990;2022-08-24T14:53:55;34.60;65.30
12111;DHT22;6119;52.372;8.990;2022-08-24T14:56:56;34.30;64.10
12111;DHT22;6119;52.372;8.990;2022-08-24T14:59:53;34.50;65.10
12111;DHT22;6119;52.372;8.990;2022-08-24T15:03:13;34.70;64.20
12111;DHT22;6119;52.372;8.990;2022-08-24T15:06:10;34.80;64.10
12111;DHT22;6119;52.372;8.990;2022-08-24T15:09:21;34.50;63.50
12111;DHT22;6119;52.372;8.990;2022-08-24T15:12:13;34.80;63.80
12111;DHT22;6119;52.372;8.990;2022-08-24T15:15:09;34.40;62.70
12111;DHT22;6119;52.372;8.990;2022-08-24T15:18:00;34.40;63.40
12111;DHT22;6119;52.372;8.990;2022-08-24T15:21:04;34.60;63.80
12111;DHT22;6119;52.372;8.990;2022-08-24T15:24:02;34.70;62.30
12111;DHT22;6119;52.372;8.990;2022-08-24T15:27:01;34.50;63.90
12111;DHT22;6119;52.372;8.990;2022-08-24T15:29:55;34.50;62.10
12111;DHT22;6119;52.372;8.990;2022-08-24T15:32:44;34.70;62.60
12111;DHT22;6119;52.372;8.990;2022-08-24T15:35:35;34.60;62.40
12111;DHT22;6119;52.372;8.990;2022-08-24T15:38:33;34.60;61.90
12111;DHT22;6119;52.372;8.990;2022-08-24T15:41:22;34.70;63.90
12111;DHT22;6119;52.372;8.990;2022-08-24T15:44:14;34.60;63.50
12111;DHT22;6119;52.372;8.990;2022-08-24T15:47:24;34.70;62.70
12111;DHT22;6119;52.372;8.990;2022-08-24T15:50:22;35.00;62.00
12111;DHT22;6119;52.372;8.990;2022-08-24T15:53:31;34.90;62.00
12111;DHT22;6119;52.372;8.990;2022-08-24T15:56:28;35.00;62.80
12111;DHT22;6119;52.372;8.990;2022-08-24T15:59:27;34.90;61.20
12111;DHT22;6119;52.372;8.990;2022-08-24T16:02:21;34.80;62.30
12111;DHT22;6119;52.372;8.990;2022-08-24T16:05:17;34.80;61.60
12111;DHT22;6119;52.372;8.990;2022-08-24T16:08:10;34.80;62.00
12111;DHT22;6119;52.372;8.990;2022-08-24T16:11:18;34.80;61.60
12111;DHT22;6119;52.372;8.990;2022-08-24T16:14:11;35.00;62.60
12111;DHT22;6119;52.372;8.990;2022-08-24T16:17:00;34.60;61.30
12111;DHT22;6119;52.372;8.990;2022-08-24T16:20:05;34.70;62.40
12111;DHT22;6119;52.372;8.990;2022-08-24T16:22:54;34.50;60.80
12111;DHT22;6119;52.372;8.990;2022-08-24T16:25:45;34.70;62.10
12111;DHT22;6119;52.372;8.990;2022-08-24T16:28:35;34.60;61.70
12111;DHT22;6119;52.372;8.990;2022-08-24T16:31:46;34.50;61.20
12111;DHT22;6119;52.372;8.990;2022-08-24T16:34:34;34.30;61.60
12111;DHT22;6119;52.372;8.990;2022-08-24T16:37:22;34.30;61.00
12111;DHT22;6119;52.372;8.990;2022-08-24T16:40:09;34.40;61.00
12111;DHT22;6119;52.372;8.990;2022-08-24T16:42:56;34.50;61.10
12111;DHT22;6119;52.372;8.990;2022-08-24T16:45:43;34.60;61.40
12111;DHT22;6119;52.372;8.990;2022-08-24T16:48:31;34.40;60.50
12111;DHT22;6119;52.372;8.990;2022-08-24T16:51:20;34.40;61.40
12111;DHT22;6119;52.372;8.990;2022-08-24T16:54:09;34.50;60.80
12111;DHT22;6119;52.372;8.990;2022-08-24T16:56:56;34.40;61.00
12111;DHT22;6119;52.372;8.990;2022-08-24T16:59:45;34.40;60.40
12111;DHT22;6119;52.372;8.990;2022-08-24T17:02:32;34.30;61.00
12111;DHT22;6119;52.372;8.990;2022-08-24T17:05:19;34.60;61.70
12111;DHT22;6119;52.372;8.990;2022-08-24T17:08:07;34.60;60.50
12111;DHT22;6119;52.372;8.990;2022-08-24T17:10:55;34.50;60.00
12111;DHT22;6119;52.372;8.990;2022-08-24T17:13:41;34.30;60.40
12111;DHT22;6119;52.372;8.990;2022-08-24T17:16:35;34.30;60.80
12111;DHT22;6119;52.372;8.990;2022-08-24T17:19:24;33.90;60.50
12111;DHT22;6119;52.372;8.990;2022-08-24T17:22:15;34.00;61.00
12111;DHT22;6119;52.372;8.990;2022-08-24T17:25:03;33.60;60.80
12111;DHT22;6119;52.372;8.990;2022-08-24T17:27:51;33.40;61.00
12111;DHT22;6119;52.372;8.990;2022-08-24T17:30:39;33.60;62.20
12111;DHT22;6119;52.372;8.990;2022-08-24T17:33:26;33.60;62.50
12111;DHT22;6119;52.372;8.990;2022-08-24T17:36:13;33.60;62.00
12111;DHT22;6119;52.372;8.990;2022-08-24T17:39:02;33.60;62.80
12111;DHT22;6119;52.372;8.990;2022-08-24T17:41:50;33.50;63.40
12111;DHT22;6119;52.372;8.990;2022-08-24T17:44:37;33.00;63.50
12111;DHT22;6119;52.372;8.990;2022-08-24T17:47:23;32.70;63.90
12111;DHT22;6119;52.372;8.990;2022-08-24T17:50:11;32.50;64.50
12111;DHT22;6119;52.372;8.990;2022-08-24T17:52:57;32.40;64.80
12111;DHT22;6119;52.372;8.990;2022-08-24T17:55:51;32.20;64.80
12111;DHT22;6119;52.372;8.990;2022-08-24T17:58:39;32.00;65.00
12111;DHT22;6119;52.372;8.990;2022-08-24T18:01:40;31.80;65.40
12111;DHT22;6119;52.372;8.990;2022-08-24T18:04:28;31.80;66.10
12111;DHT22;6119;52.372;8.990;2022-08-24T18:07:18;31.60;66.30
12111;DHT22;6119;52.372;8.990;2022-08-24T18:10:28;31.40;66.40
12111;DHT22;6119;52.372;8.990;2022-08-24T18:13:16;31.30;67.10
12111;DHT22;6119;52.372;8.990;2022-08-24T18:16:05;31.40;68.00
12111;DHT22;6119;52.372;8.990;2022-08-24T18:18:52;31.30;68.10
12111;DHT22;6119;52.372;8.990;2022-08-24T18:21:39;31.20;68.30
12111;DHT22;6119;52.372;8.990;2022-08-24T18:24:26;31.10;68.10
12111;DHT22;6119;52.372;8.990;2022-08-24T18:27:18;30.90;69.10
12111;DHT22;6119;52.372;8.990;2022-08-24T18:30:10;30.90;69.30
12111;DHT22;6119;52.372;8.990;2022-08-24T18:33:00;30.80;69.00
12111;DHT22;6119;52.372;8.990;2022-08-24T18:35:48;30.80;70.00
12111;DHT22;6119;52.372;8.990;2022-08-24T18:38:35;30.50;69.10
12111;DHT22;6119;52.372;8.990;2022-08-24T18:41:23;30.50;69.70
12111;DHT22;6119;52.372;8.990;2022-08-24T18:44:12;30.40;70.40
12111;DHT22;6119;52.372;8.990;2022-08-24T18:47:00;30.40;70.70